< < Back
Terminal Aerodrome Forecast


Current Version              Previous Versions:   1  2  3  4  5  6  7  8  9  

Terminal Aerodrome Forecast

132
FTUS42 KFFC 162300
TAFAHN
TAF
KAHN 162320Z 1700/1724 10007KT P6SM SKC
     FM171200 08010KT P6SM SCT250
     FM171600 10010G20KT P6SM BKN040 BKN250=



Latest METAR

806
SAUS70 KWBC 170000 RRT
MTRAHN
METAR KAHN 170051Z AUTO 10004KT 10SM CLR 08/01 A3030 RMK AO2 SLP263
T00830011


USA.gov is the U.S. government's official web portal to all federal, state and local government web resources and services.